sensor_id;sensor_type;location;lat;lon;timestamp;temperature;humidity
431;DHT22;202;48.764;9.172;2023-03-14T00:23:25;11.80;86.10
431;DHT22;202;48.764;9.172;2023-03-14T00:33:23;11.80;83.60
431;DHT22;202;48.764;9.172;2023-03-14T00:35:54;11.70;83.80
431;DHT22;202;48.764;9.172;2023-03-14T00:38:23;11.80;83.60
431;DHT22;202;48.764;9.172;2023-03-14T00:40:51;11.90;83.70
431;DHT22;202;48.764;9.172;2023-03-14T00:43:21;11.90;83.10
431;DHT22;202;48.764;9.172;2023-03-14T00:45:49;12.00;83.00
431;DHT22;202;48.764;9.172;2023-03-14T00:48:20;12.10;82.70
431;DHT22;202;48.764;9.172;2023-03-14T00:50:48;12.20;79.30
431;DHT22;202;48.764;9.172;2023-03-14T00:53:20;12.10;79.10
431;DHT22;202;48.764;9.172;2023-03-14T00:55:49;12.10;80.20
431;DHT22;202;48.764;9.172;2023-03-14T00:58:17;12.10;79.80
431;DHT22;202;48.764;9.172;2023-03-14T01:00:45;12.20;78.10
431;DHT22;202;48.764;9.172;2023-03-14T01:03:13;12.20;77.70
431;DHT22;202;48.764;9.172;2023-03-14T01:05:41;12.20;79.30
431;DHT22;202;48.764;9.172;2023-03-14T01:08:08;12.20;76.30
431;DHT22;202;48.764;9.172;2023-03-14T01:10:38;12.20;77.30
431;DHT22;202;48.764;9.172;2023-03-14T01:13:08;12.20;76.90
431;DHT22;202;48.764;9.172;2023-03-14T01:15:36;12.20;77.40
431;DHT22;202;48.764;9.172;2023-03-14T01:18:03;12.10;77.90
431;DHT22;202;48.764;9.172;2023-03-14T01:20:31;12.10;77.70
431;DHT22;202;48.764;9.172;2023-03-14T01:22:58;12.00;78.80
431;DHT22;202;48.764;9.172;2023-03-14T01:25:26;12.10;79.00
431;DHT22;202;48.764;9.172;2023-03-14T01:27:56;12.10;79.20
431;DHT22;202;48.764;9.172;2023-03-14T01:30:24;12.10;80.90
431;DHT22;202;48.764;9.172;2023-03-14T01:32:51;12.20;77.00
431;DHT22;202;48.764;9.172;2023-03-14T01:35:18;12.20;77.60
431;DHT22;202;48.764;9.172;2023-03-14T01:37:45;12.30;77.10
431;DHT22;202;48.764;9.172;2023-03-14T01:40:12;12.20;76.30
431;DHT22;202;48.764;9.172;2023-03-14T01:42:45;12.30;76.60
431;DHT22;202;48.764;9.172;2023-03-14T01:48:20;12.40;73.80
431;DHT22;202;48.764;9.172;2023-03-14T01:50:47;12.40;73.40
431;DHT22;202;48.764;9.172;2023-03-14T01:53:15;12.40;74.70
431;DHT22;202;48.764;9.172;2023-03-14T01:55:42;12.40;73.90
431;DHT22;202;48.764;9.172;2023-03-14T01:58:09;12.40;73.50
431;DHT22;202;48.764;9.172;2023-03-14T02:00:36;12.30;73.50
431;DHT22;202;48.764;9.172;2023-03-14T02:03:08;12.30;70.40
431;DHT22;202;48.764;9.172;2023-03-14T02:05:44;12.30;69.80
431;DHT22;202;48.764;9.172;2023-03-14T02:08:15;12.30;69.90
431;DHT22;202;48.764;9.172;2023-03-14T02:10:45;12.20;68.50
431;DHT22;202;48.764;9.172;2023-03-14T02:13:13;12.10;68.70
431;DHT22;202;48.764;9.172;2023-03-14T02:15:41;12.10;69.20
431;DHT22;202;48.764;9.172;2023-03-14T02:18:08;12.00;69.60
431;DHT22;202;48.764;9.172;2023-03-14T02:20:41;12.00;69.50
431;DHT22;202;48.764;9.172;2023-03-14T02:23:13;12.10;70.50
431;DHT22;202;48.764;9.172;2023-03-14T02:25:51;12.10;70.80
431;DHT22;202;48.764;9.172;2023-03-14T02:28:23;12.10;72.00
431;DHT22;202;48.764;9.172;2023-03-14T02:30:54;12.10;71.80
431;DHT22;202;48.764;9.172;2023-03-14T02:33:33;12.00;72.50
431;DHT22;202;48.764;9.172;2023-03-14T02:36:18;12.00;73.50
431;DHT22;202;48.764;9.172;2023-03-14T02:38:53;12.00;74.40
431;DHT22;202;48.764;9.172;2023-03-14T02:41:22;12.00;74.30
431;DHT22;202;48.764;9.172;2023-03-14T02:43:51;11.90;74.20
431;DHT22;202;48.764;9.172;2023-03-14T02:46:19;11.90;74.70
431;DHT22;202;48.764;9.172;2023-03-14T02:48:49;11.90;74.20
431;DHT22;202;48.764;9.172;2023-03-14T02:51:19;11.80;74.50
431;DHT22;202;48.764;9.172;2023-03-14T02:53:46;11.80;75.10
431;DHT22;202;48.764;9.172;2023-03-14T02:56:13;11.70;75.10
431;DHT22;202;48.764;9.172;2023-03-14T02:58:39;11.60;75.70
431;DHT22;202;48.764;9.172;2023-03-14T03:01:08;11.60;76.70
431;DHT22;202;48.764;9.172;2023-03-14T03:03:35;11.50;75.30
431;DHT22;202;48.764;9.172;2023-03-14T03:06:02;11.50;75.60
431;DHT22;202;48.764;9.172;2023-03-14T03:08:29;11.50;75.60
431;DHT22;202;48.764;9.172;2023-03-14T03:10:57;11.50;73.90
431;DHT22;202;48.764;9.172;2023-03-14T03:13:24;11.50;73.90
431;DHT22;202;48.764;9.172;2023-03-14T03:15:52;11.60;72.80
431;DHT22;202;48.764;9.172;2023-03-14T03:18:21;11.70;70.50
431;DHT22;202;48.764;9.172;2023-03-14T03:20:48;11.60;69.80
431;DHT22;202;48.764;9.172;2023-03-14T03:23:14;11.60;70.00
431;DHT22;202;48.764;9.172;2023-03-14T03:25:42;11.60;69.20
431;DHT22;202;48.764;9.172;2023-03-14T03:28:09;11.60;69.20
431;DHT22;202;48.764;9.172;2023-03-14T03:30:39;11.60;68.40
431;DHT22;202;48.764;9.172;2023-03-14T03:33:06;11.60;67.70
431;DHT22;202;48.764;9.172;2023-03-14T03:35:34;11.60;66.50
431;DHT22;202;48.764;9.172;2023-03-14T03:38:01;11.50;66.40
431;DHT22;202;48.764;9.172;2023-03-14T03:40:28;11.50;65.80
431;DHT22;202;48.764;9.172;2023-03-14T03:42:55;11.40;65.70
431;DHT22;202;48.764;9.172;2023-03-14T03:45:21;11.40;65.30
431;DHT22;202;48.764;9.172;2023-03-14T03:47:48;11.50;65.00
431;DHT22;202;48.764;9.172;2023-03-14T03:50:15;11.50;64.20
431;DHT22;202;48.764;9.172;2023-03-14T03:52:44;11.50;64.20
431;DHT22;202;48.764;9.172;2023-03-14T03:55:10;11.60;63.20
431;DHT22;202;48.764;9.172;2023-03-14T03:57:37;11.60;63.50
431;DHT22;202;48.764;9.172;2023-03-14T04:00:06;11.60;61.10
431;DHT22;202;48.764;9.172;2023-03-14T04:02:34;11.60;59.40
431;DHT22;202;48.764;9.172;2023-03-14T04:05:01;11.50;60.20
431;DHT22;202;48.764;9.172;2023-03-14T04:07:28;11.50;59.30
431;DHT22;202;48.764;9.172;2023-03-14T04:09:56;11.50;59.30
431;DHT22;202;48.764;9.172;2023-03-14T04:12:23;11.40;59.20
431;DHT22;202;48.764;9.172;2023-03-14T04:14:50;11.40;58.50
431;DHT22;202;48.764;9.172;2023-03-14T04:17:17;11.30;59.10
431;DHT22;202;48.764;9.172;2023-03-14T04:19:43;11.30;59.20
431;DHT22;202;48.764;9.172;2023-03-14T04:22:10;11.30;59.20
431;DHT22;202;48.764;9.172;2023-03-14T04:24:37;11.30;59.30
431;DHT22;202;48.764;9.172;2023-03-14T04:27:05;11.30;60.20
431;DHT22;202;48.764;9.172;2023-03-14T04:29:32;11.40;59.30
431;DHT22;202;48.764;9.172;2023-03-14T04:31:58;11.40;59.20
431;DHT22;202;48.764;9.172;2023-03-14T04:34:25;11.40;59.20
431;DHT22;202;48.764;9.172;2023-03-14T04:36:52;11.40;58.50
431;DHT22;202;48.764;9.172;2023-03-14T04:39:19;11.30;58.50
431;DHT22;202;48.764;9.172;2023-03-14T04:41:45;11.40;58.60
431;DHT22;202;48.764;9.172;2023-03-14T04:44:14;11.40;57.40
431;DHT22;202;48.764;9.172;2023-03-14T04:46:40;11.40;56.90
431;DHT22;202;48.764;9.172;2023-03-14T04:49:07;11.40;57.00
431;DHT22;202;48.764;9.172;2023-03-14T04:51:34;11.40;57.20
431;DHT22;202;48.764;9.172;2023-03-14T04:54:01;11.40;58.20
431;DHT22;202;48.764;9.172;2023-03-14T04:56:27;11.30;59.20
431;DHT22;202;48.764;9.172;2023-03-14T04:58:54;11.40;58.50
431;DHT22;202;48.764;9.172;2023-03-14T05:01:22;11.40;59.20
431;DHT22;202;48.764;9.172;2023-03-14T05:03:49;11.50;59.10
431;DHT22;202;48.764;9.172;2023-03-14T05:06:16;11.50;58.20
431;DHT22;202;48.764;9.172;2023-03-14T05:08:43;11.50;57.20
431;DHT22;202;48.764;9.172;2023-03-14T05:11:10;11.50;58.60
431;DHT22;202;48.764;9.172;2023-03-14T05:13:38;11.40;58.00
431;DHT22;202;48.764;9.172;2023-03-14T05:16:06;11.40;57.60
431;DHT22;202;48.764;9.172;2023-03-14T05:18:34;11.40;57.90
431;DHT22;202;48.764;9.172;2023-03-14T05:21:01;11.20;59.10
431;DHT22;202;48.764;9.172;2023-03-14T05:23:28;11.30;58.20
431;DHT22;202;48.764;9.172;2023-03-14T05:25:55;11.30;59.00
431;DHT22;202;48.764;9.172;2023-03-14T05:28:23;11.40;58.30
431;DHT22;202;48.764;9.172;2023-03-14T05:30:49;11.40;58.20
431;DHT22;202;48.764;9.172;2023-03-14T05:33:16;11.40;57.80
431;DHT22;202;48.764;9.172;2023-03-14T05:35:45;11.30;57.00
431;DHT22;202;48.764;9.172;2023-03-14T05:38:12;11.20;57.50
431;DHT22;202;48.764;9.172;2023-03-14T05:40:39;11.20;58.00
431;DHT22;202;48.764;9.172;2023-03-14T05:43:06;11.20;57.50
431;DHT22;202;48.764;9.172;2023-03-14T05:45:34;11.30;57.40
431;DHT22;202;48.764;9.172;2023-03-14T05:48:02;11.30;58.40
431;DHT22;202;48.764;9.172;2023-03-14T05:50:28;11.40;57.80
431;DHT22;202;48.764;9.172;2023-03-14T05:52:57;11.40;56.70
431;DHT22;202;48.764;9.172;2023-03-14T05:55:24;11.40;57.00
431;DHT22;202;48.764;9.172;2023-03-14T05:57:52;11.40;56.50
431;DHT22;202;48.764;9.172;2023-03-14T06:00:20;11.40;57.60
431;DHT22;202;48.764;9.172;2023-03-14T06:02:47;11.40;57.70
431;DHT22;202;48.764;9.172;2023-03-14T06:05:14;11.40;57.40
431;DHT22;202;48.764;9.172;2023-03-14T06:07:41;11.50;57.60
431;DHT22;202;48.764;9.172;2023-03-14T06:10:10;11.50;57.40
431;DHT22;202;48.764;9.172;2023-03-14T06:12:36;11.50;57.50
431;DHT22;202;48.764;9.172;2023-03-14T06:15:04;11.50;56.60
431;DHT22;202;48.764;9.172;2023-03-14T06:17:31;11.50;55.90
431;DHT22;202;48.764;9.172;2023-03-14T06:19:58;11.50;55.80
431;DHT22;202;48.764;9.172;2023-03-14T06:22:28;11.50;55.60
431;DHT22;202;48.764;9.172;2023-03-14T06:24:55;11.50;56.00
431;DHT22;202;48.764;9.172;2023-03-14T06:27:24;11.50;56.30
431;DHT22;202;48.764;9.172;2023-03-14T06:29:52;11.60;56.40
431;DHT22;202;48.764;9.172;2023-03-14T06:32:19;11.60;56.90
431;DHT22;202;48.764;9.172;2023-03-14T08:09:28;17.20;34.90
431;DHT22;202;48.764;9.172;2023-03-14T08:11:55;17.70;35.70
431;DHT22;202;48.764;9.172;2023-03-14T08:14:22;17.90;33.20
431;DHT22;202;48.764;9.172;2023-03-14T08:16:49;17.60;33.00
431;DHT22;202;48.764;9.172;2023-03-14T08:19:16;17.20;34.00
431;DHT22;202;48.764;9.172;2023-03-14T08:21:43;16.90;34.50
431;DHT22;202;48.764;9.172;2023-03-14T08:24:10;17.00;36.50
431;DHT22;202;48.764;9.172;2023-03-14T08:26:38;17.10;34.30
431;DHT22;202;48.764;9.172;2023-03-14T08:29:05;17.00;34.10
431;DHT22;202;48.764;9.172;2023-03-14T08:31:34;17.10;33.90
431;DHT22;202;48.764;9.172;2023-03-14T08:34:04;17.50;34.90
431;DHT22;202;48.764;9.172;2023-03-14T08:36:32;17.90;32.40
431;DHT22;202;48.764;9.172;2023-03-14T08:38:59;17.80;31.50
431;DHT22;202;48.764;9.172;2023-03-14T08:41:26;17.60;31.90
431;DHT22;202;48.764;9.172;2023-03-14T08:43:54;17.30;33.40
431;DHT22;202;48.764;9.172;2023-03-14T08:46:21;17.00;33.00
431;DHT22;202;48.764;9.172;2023-03-14T08:48:48;16.60;32.70
431;DHT22;202;48.764;9.172;2023-03-14T08:51:15;16.50;33.80
431;DHT22;202;48.764;9.172;2023-03-14T08:53:43;16.40;33.70
431;DHT22;202;48.764;9.172;2023-03-14T08:56:11;16.30;34.20
431;DHT22;202;48.764;9.172;2023-03-14T08:58:39;16.40;34.30
431;DHT22;202;48.764;9.172;2023-03-14T09:01:10;16.60;34.50
431;DHT22;202;48.764;9.172;2023-03-14T09:03:39;16.70;34.10
431;DHT22;202;48.764;9.172;2023-03-14T09:06:08;16.40;34.20
431;DHT22;202;48.764;9.172;2023-03-14T09:08:36;15.80;35.70
431;DHT22;202;48.764;9.172;2023-03-14T09:11:06;15.50;36.80
431;DHT22;202;48.764;9.172;2023-03-14T09:13:33;15.20;38.40
431;DHT22;202;48.764;9.172;2023-03-14T09:16:01;15.00;38.50
431;DHT22;202;48.764;9.172;2023-03-14T09:18:29;14.80;39.40
431;DHT22;202;48.764;9.172;2023-03-14T09:20:56;14.90;40.00
431;DHT22;202;48.764;9.172;2023-03-14T09:23:23;14.90;40.40
431;DHT22;202;48.764;9.172;2023-03-14T09:25:56;15.10;41.30
431;DHT22;202;48.764;9.172;2023-03-14T09:28:24;15.50;40.50
431;DHT22;202;48.764;9.172;2023-03-14T09:30:51;15.60;38.80
431;DHT22;202;48.764;9.172;2023-03-14T09:33:18;15.60;38.70
431;DHT22;202;48.764;9.172;2023-03-14T09:35:46;15.60;38.70
431;DHT22;202;48.764;9.172;2023-03-14T09:38:13;15.50;38.60
431;DHT22;202;48.764;9.172;2023-03-14T09:40:41;15.40;39.70
431;DHT22;202;48.764;9.172;2023-03-14T09:43:10;15.30;40.70
431;DHT22;202;48.764;9.172;2023-03-14T09:45:39;15.00;41.00
431;DHT22;202;48.764;9.172;2023-03-14T09:48:14;15.00;40.90
431;DHT22;202;48.764;9.172;2023-03-14T09:50:44;15.00;40.50
431;DHT22;202;48.764;9.172;2023-03-14T09:53:16;15.00;40.10
431;DHT22;202;48.764;9.172;2023-03-14T09:55:45;14.80;40.70
431;DHT22;202;48.764;9.172;2023-03-14T09:58:16;14.70;40.40
431;DHT22;202;48.764;9.172;2023-03-14T10:00:44;14.70;40.50
431;DHT22;202;48.764;9.172;2023-03-14T10:03:22;14.50;40.30
431;DHT22;202;48.764;9.172;2023-03-14T10:05:51;14.30;41.10
431;DHT22;202;48.764;9.172;2023-03-14T10:08:20;14.30;42.00
431;DHT22;202;48.764;9.172;2023-03-14T10:10:47;14.30;41.80
431;DHT22;202;48.764;9.172;2023-03-14T10:13:16;14.30;41.70
431;DHT22;202;48.764;9.172;2023-03-14T10:15:48;14.70;41.10
431;DHT22;202;48.764;9.172;2023-03-14T10:18:17;14.90;39.90
431;DHT22;202;48.764;9.172;2023-03-14T10:21:02;15.20;39.10
431;DHT22;202;48.764;9.172;2023-03-14T10:23:50;15.30;39.70
431;DHT22;202;48.764;9.172;2023-03-14T10:26:34;15.60;39.40
431;DHT22;202;48.764;9.172;2023-03-14T10:29:51;15.60;37.80
431;DHT22;202;48.764;9.172;2023-03-14T10:32:27;15.50;39.00
431;DHT22;202;48.764;9.172;2023-03-14T10:38:12;15.10;37.80
431;DHT22;202;48.764;9.172;2023-03-14T10:40:49;15.00;38.20
431;DHT22;202;48.764;9.172;2023-03-14T10:43:20;14.80;38.80
431;DHT22;202;48.764;9.172;2023-03-14T10:45:53;14.90;38.60
431;DHT22;202;48.764;9.172;2023-03-14T10:48:28;14.80;38.60
431;DHT22;202;48.764;9.172;2023-03-14T10:50:57;14.80;38.40
431;DHT22;202;48.764;9.172;2023-03-14T10:53:39;14.90;39.00
431;DHT22;202;48.764;9.172;2023-03-14T10:56:12;15.00;38.20
431;DHT22;202;48.764;9.172;2023-03-14T10:58:42;14.90;39.20
431;DHT22;202;48.764;9.172;2023-03-14T11:01:18;15.00;38.90
431;DHT22;202;48.764;9.172;2023-03-14T11:03:57;15.00;39.20
431;DHT22;202;48.764;9.172;2023-03-14T11:06:33;14.70;40.20
431;DHT22;202;48.764;9.172;2023-03-14T11:09:07;14.60;43.40
431;DHT22;202;48.764;9.172;2023-03-14T11:11:40;14.50;43.70
431;DHT22;202;48.764;9.172;2023-03-14T11:14:26;14.40;44.40
431;DHT22;202;48.764;9.172;2023-03-14T11:17:00;14.30;43.80
431;DHT22;202;48.764;9.172;2023-03-14T11:19:43;14.30;45.70
431;DHT22;202;48.764;9.172;2023-03-14T11:22:21;14.40;44.90
431;DHT22;202;48.764;9.172;2023-03-14T11:25:01;14.30;47.50
431;DHT22;202;48.764;9.172;2023-03-14T11:27:40;14.30;49.50
431;DHT22;202;48.764;9.172;2023-03-14T11:30:19;14.30;47.50
431;DHT22;202;48.764;9.172;2023-03-14T11:32:56;14.20;46.30
431;DHT22;202;48.764;9.172;2023-03-14T11:35:29;14.10;48.10
431;DHT22;202;48.764;9.172;2023-03-14T11:38:04;14.00;47.20
431;DHT22;202;48.764;9.172;2023-03-14T11:40:34;14.10;49.20
431;DHT22;202;48.764;9.172;2023-03-14T11:43:10;14.00;47.20
431;DHT22;202;48.764;9.172;2023-03-14T11:45:40;14.00;47.20
431;DHT22;202;48.764;9.172;2023-03-14T11:48:16;14.00;47.20
431;DHT22;202;48.764;9.172;2023-03-14T11:50:47;13.90;47.90
431;DHT22;202;48.764;9.172;2023-03-14T11:53:19;13.80;49.40
431;DHT22;202;48.764;9.172;2023-03-14T11:55:47;13.80;49.30
431;DHT22;202;48.764;9.172;2023-03-14T11:58:20;13.80;49.90
431;DHT22;202;48.764;9.172;2023-03-14T12:00:49;13.80;50.60
431;DHT22;202;48.764;9.172;2023-03-14T12:03:25;13.90;51.10
431;DHT22;202;48.764;9.172;2023-03-14T12:06:13;13.60;51.70
431;DHT22;202;48.764;9.172;2023-03-14T12:08:47;13.70;50.40
431;DHT22;202;48.764;9.172;2023-03-14T12:11:21;13.60;51.30
431;DHT22;202;48.764;9.172;2023-03-14T12:13:52;13.60;50.50
431;DHT22;202;48.764;9.172;2023-03-14T12:16:35;13.50;50.50
431;DHT22;202;48.764;9.172;2023-03-14T12:22:30;13.40;52.80
431;DHT22;202;48.764;9.172;2023-03-14T12:25:02;13.30;54.00
431;DHT22;202;48.764;9.172;2023-03-14T12:28:04;13.20;52.90
431;DHT22;202;48.764;9.172;2023-03-14T12:30:44;13.30;49.80
431;DHT22;202;48.764;9.172;2023-03-14T12:33:19;13.50;50.60
431;DHT22;202;48.764;9.172;2023-03-14T12:35:50;13.60;46.90
431;DHT22;202;48.764;9.172;2023-03-14T12:38:24;13.70;45.30
431;DHT22;202;48.764;9.172;2023-03-14T12:40:58;13.50;43.10
431;DHT22;202;48.764;9.172;2023-03-14T12:43:30;13.40;43.10
431;DHT22;202;48.764;9.172;2023-03-14T12:46:23;13.50;43.00
431;DHT22;202;48.764;9.172;2023-03-14T12:48:54;13.30;39.00
431;DHT22;202;48.764;9.172;2023-03-14T12:51:29;13.40;39.10
431;DHT22;202;48.764;9.172;2023-03-14T12:54:35;13.30;37.30
431;DHT22;202;48.764;9.172;2023-03-14T12:57:30;13.00;35.60
431;DHT22;202;48.764;9.172;2023-03-14T13:00:00;13.10;36.50
431;DHT22;202;48.764;9.172;2023-03-14T13:02:37;13.10;34.30
431;DHT22;202;48.764;9.172;2023-03-14T13:05:10;12.80;35.10
431;DHT22;202;48.764;9.172;2023-03-14T13:08:03;12.70;33.00
431;DHT22;202;48.764;9.172;2023-03-14T13:10:39;12.40;31.50
431;DHT22;202;48.764;9.172;2023-03-14T13:13:15;12.30;33.70
431;DHT22;202;48.764;9.172;2023-03-14T13:15:44;12.30;33.80
431;DHT22;202;48.764;9.172;2023-03-14T13:18:15;12.10;31.70
431;DHT22;202;48.764;9.172;2023-03-14T13:20:45;12.00;32.10
431;DHT22;202;48.764;9.172;2023-03-14T13:23:20;12.00;31.80
431;DHT22;202;48.764;9.172;2023-03-14T13:25:49;11.90;32.20
431;DHT22;202;48.764;9.172;2023-03-14T13:28:16;12.00;32.60
431;DHT22;202;48.764;9.172;2023-03-14T13:30:46;12.20;31.60
431;DHT22;202;48.764;9.172;2023-03-14T13:33:28;12.40;30.00
431;DHT22;202;48.764;9.172;2023-03-14T13:35:57;12.40;30.00
431;DHT22;202;48.764;9.172;2023-03-14T13:38:26;12.40;29.30
431;DHT22;202;48.764;9.172;2023-03-14T13:40:58;12.40;29.90
431;DHT22;202;48.764;9.172;2023-03-14T13:43:33;12.30;29.10
431;DHT22;202;48.764;9.172;2023-03-14T13:46:04;12.20;29.60
431;DHT22;202;48.764;9.172;2023-03-14T13:48:52;12.00;29.20
431;DHT22;202;48.764;9.172;2023-03-14T13:51:21;12.10;30.50
431;DHT22;202;48.764;9.172;2023-03-14T13:53:52;12.10;30.00
431;DHT22;202;48.764;9.172;2023-03-14T13:56:20;12.20;30.00
431;DHT22;202;48.764;9.172;2023-03-14T13:58:49;12.20;28.30
431;DHT22;202;48.764;9.172;2023-03-14T14:01:18;12.20;29.00
431;DHT22;202;48.764;9.172;2023-03-14T14:03:51;12.20;27.60
431;DHT22;202;48.764;9.172;2023-03-14T14:06:27;11.90;27.20
431;DHT22;202;48.764;9.172;2023-03-14T14:33:58;11.40;25.90
431;DHT22;202;48.764;9.172;2023-03-14T14:36:39;11.40;25.90
431;DHT22;202;48.764;9.172;2023-03-14T14:39:24;11.20;25.90
431;DHT22;202;48.764;9.172;2023-03-14T14:45:24;11.20;27.00
431;DHT22;202;48.764;9.172;2023-03-14T14:54:44;11.50;26.10
431;DHT22;202;48.764;9.172;2023-03-14T14:58:10;11.40;26.00
431;DHT22;202;48.764;9.172;2023-03-14T15:01:40;11.10;27.10
431;DHT22;202;48.764;9.172;2023-03-14T15:04:31;11.20;27.20
431;DHT22;202;48.764;9.172;2023-03-14T15:10:40;11.10;26.40
431;DHT22;202;48.764;9.172;2023-03-14T15:14:22;11.20;26.50
431;DHT22;202;48.764;9.172;2023-03-14T15:17:47;11.20;25.90
431;DHT22;202;48.764;9.172;2023-03-14T15:20:39;11.30;27.20
431;DHT22;202;48.764;9.172;2023-03-14T15:30:32;11.50;26.10
431;DHT22;202;48.764;9.172;2023-03-14T15:43:58;11.40;26.40
431;DHT22;202;48.764;9.172;2023-03-14T15:53:12;11.20;26.70
431;DHT22;202;48.764;9.172;2023-03-14T15:56:21;11.20;27.20
431;DHT22;202;48.764;9.172;2023-03-14T15:59:34;11.30;27.20
431;DHT22;202;48.764;9.172;2023-03-14T16:02:18;11.40;27.10
431;DHT22;202;48.764;9.172;2023-03-14T16:32:45;11.20;28.70
431;DHT22;202;48.764;9.172;2023-03-14T16:35:12;11.20;28.50
431;DHT22;202;48.764;9.172;2023-03-14T16:37:39;11.20;28.80
431;DHT22;202;48.764;9.172;2023-03-14T16:40:09;11.20;28.60
431;DHT22;202;48.764;9.172;2023-03-14T16:42:36;11.20;28.60
431;DHT22;202;48.764;9.172;2023-03-14T16:45:03;11.20;28.70
431;DHT22;202;48.764;9.172;2023-03-14T16:47:30;11.20;29.20
431;DHT22;202;48.764;9.172;2023-03-14T16:49:58;11.20;28.60
431;DHT22;202;48.764;9.172;2023-03-14T16:52:27;11.20;28.90
431;DHT22;202;48.764;9.172;2023-03-14T16:54:54;11.20;28.50
431;DHT22;202;48.764;9.172;2023-03-14T16:57:21;11.20;28.60
431;DHT22;202;48.764;9.172;2023-03-14T16:59:47;11.30;28.80
431;DHT22;202;48.764;9.172;2023-03-14T17:02:15;11.30;29.60
431;DHT22;202;48.764;9.172;2023-03-14T17:04:42;11.30;29.00
431;DHT22;202;48.764;9.172;2023-03-14T17:07:10;11.30;28.90
431;DHT22;202;48.764;9.172;2023-03-14T17:09:37;11.30;28.30
431;DHT22;202;48.764;9.172;2023-03-14T17:12:05;11.20;29.10
431;DHT22;202;48.764;9.172;2023-03-14T17:14:32;11.20;29.00
431;DHT22;202;48.764;9.172;2023-03-14T17:16:59;11.30;29.10
431;DHT22;202;48.764;9.172;2023-03-14T17:19:26;11.20;29.10
431;DHT22;202;48.764;9.172;2023-03-14T17:21:53;11.20;29.00
431;DHT22;202;48.764;9.172;2023-03-14T17:24:21;11.10;29.50
431;DHT22;202;48.764;9.172;2023-03-14T17:26:47;11.20;29.60
431;DHT22;202;48.764;9.172;2023-03-14T17:29:14;11.20;29.60
431;DHT22;202;48.764;9.172;2023-03-14T17:31:41;11.30;31.40
431;DHT22;202;48.764;9.172;2023-03-14T17:34:08;11.10;34.70
431;DHT22;202;48.764;9.172;2023-03-14T17:36:36;11.10;35.30
431;DHT22;202;48.764;9.172;2023-03-14T17:39:03;11.00;37.40
431;DHT22;202;48.764;9.172;2023-03-14T17:41:31;10.90;38.90
431;DHT22;202;48.764;9.172;2023-03-14T17:43:57;10.80;39.40
431;DHT22;202;48.764;9.172;2023-03-14T17:46:25;10.70;40.50
431;DHT22;202;48.764;9.172;2023-03-14T17:48:51;10.50;40.60
431;DHT22;202;48.764;9.172;2023-03-14T17:51:19;10.50;42.50
431;DHT22;202;48.764;9.172;2023-03-14T17:53:46;10.50;42.80
431;DHT22;202;48.764;9.172;2023-03-14T17:56:13;10.50;42.90
431;DHT22;202;48.764;9.172;2023-03-14T17:58:41;10.40;44.00
431;DHT22;202;48.764;9.172;2023-03-14T18:01:11;10.30;44.50
431;DHT22;202;48.764;9.172;2023-03-14T18:03:38;10.30;43.90
431;DHT22;202;48.764;9.172;2023-03-14T18:06:10;10.30;44.40
431;DHT22;202;48.764;9.172;2023-03-14T18:08:38;10.30;43.90
431;DHT22;202;48.764;9.172;2023-03-14T18:11:06;10.30;43.90
431;DHT22;202;48.764;9.172;2023-03-14T18:13:34;10.20;45.00
431;DHT22;202;48.764;9.172;2023-03-14T18:16:03;9.90;48.00
431;DHT22;202;48.764;9.172;2023-03-14T18:18:31;9.80;50.50
431;DHT22;202;48.764;9.172;2023-03-14T18:20:58;9.50;50.10
431;DHT22;202;48.764;9.172;2023-03-14T18:23:25;9.40;50.00
431;DHT22;202;48.764;9.172;2023-03-14T18:25:53;9.40;50.90
431;DHT22;202;48.764;9.172;2023-03-14T18:28:20;9.40;50.70
431;DHT22;202;48.764;9.172;2023-03-14T18:30:47;9.20;51.00
431;DHT22;202;48.764;9.172;2023-03-14T18:33:19;8.90;51.90
431;DHT22;202;48.764;9.172;2023-03-14T18:35:46;8.80;51.80
431;DHT22;202;48.764;9.172;2023-03-14T18:38:15;8.70;51.90
431;DHT22;202;48.764;9.172;2023-03-14T18:40:42;8.80;53.20
431;DHT22;202;48.764;9.172;2023-03-14T18:43:09;8.80;52.90
431;DHT22;202;48.764;9.172;2023-03-14T18:45:36;8.80;52.50
431;DHT22;202;48.764;9.172;2023-03-14T18:48:03;8.70;53.00
431;DHT22;202;48.764;9.172;2023-03-14T18:50:32;8.80;52.60
431;DHT22;202;48.764;9.172;2023-03-14T18:52:59;8.90;51.10
431;DHT22;202;48.764;9.172;2023-03-14T18:55:28;8.80;50.70
431;DHT22;202;48.764;9.172;2023-03-14T18:57:58;8.90;50.20
431;DHT22;202;48.764;9.172;2023-03-14T19:00:25;8.80;49.10
431;DHT22;202;48.764;9.172;2023-03-14T19:02:52;8.80;48.70
431;DHT22;202;48.764;9.172;2023-03-14T19:05:19;8.80;48.70
431;DHT22;202;48.764;9.172;2023-03-14T19:07:47;8.90;48.60
431;DHT22;202;48.764;9.172;2023-03-14T19:10:14;8.90;48.30
431;DHT22;202;48.764;9.172;2023-03-14T19:12:41;9.00;47.20
431;DHT22;202;48.764;9.172;2023-03-14T19:15:09;9.00;47.10
431;DHT22;202;48.764;9.172;2023-03-14T19:17:36;9.00;47.00
431;DHT22;202;48.764;9.172;2023-03-14T19:20:03;8.90;46.30
431;DHT22;202;48.764;9.172;2023-03-14T19:22:30;8.90;46.70
431;DHT22;202;48.764;9.172;2023-03-14T19:25:00;9.00;46.90
431;DHT22;202;48.764;9.172;2023-03-14T19:27:28;9.00;46.40
431;DHT22;202;48.764;9.172;2023-03-14T19:29:55;9.00;45.90
431;DHT22;202;48.764;9.172;2023-03-14T19:32:22;8.90;45.00
431;DHT22;202;48.764;9.172;2023-03-14T19:34:48;8.80;44.90
431;DHT22;202;48.764;9.172;2023-03-14T19:37:15;8.90;46.80
431;DHT22;202;48.764;9.172;2023-03-14T19:39:42;8.80;45.40
431;DHT22;202;48.764;9.172;2023-03-14T19:42:12;9.00;45.50
431;DHT22;202;48.764;9.172;2023-03-14T19:44:39;8.80;45.70
431;DHT22;202;48.764;9.172;2023-03-14T19:47:06;8.80;46.10
431;DHT22;202;48.764;9.172;2023-03-14T19:49:33;8.80;45.70
431;DHT22;202;48.764;9.172;2023-03-14T19:52:00;8.70;46.50
431;DHT22;202;48.764;9.172;2023-03-14T19:54:26;8.80;47.10
431;DHT22;202;48.764;9.172;2023-03-14T19:56:53;8.90;45.30
431;DHT22;202;48.764;9.172;2023-03-14T19:59:22;8.70;45.50
431;DHT22;202;48.764;9.172;2023-03-14T20:01:48;8.60;46.00
431;DHT22;202;48.764;9.172;2023-03-14T20:04:17;8.60;46.20
431;DHT22;202;48.764;9.172;2023-03-14T20:06:44;8.70;46.10
431;DHT22;202;48.764;9.172;2023-03-14T20:09:10;8.80;45.40
431;DHT22;202;48.764;9.172;2023-03-14T20:11:37;8.70;45.20
431;DHT22;202;48.764;9.172;2023-03-14T20:14:05;8.60;45.80
431;DHT22;202;48.764;9.172;2023-03-14T20:16:34;8.70;45.90
431;DHT22;202;48.764;9.172;2023-03-14T20:19:03;8.70;45.70
431;DHT22;202;48.764;9.172;2023-03-14T20:21:30;8.80;45.60
431;DHT22;202;48.764;9.172;2023-03-14T20:23:57;8.80;45.80
431;DHT22;202;48.764;9.172;2023-03-14T20:26:25;8.70;46.00
431;DHT22;202;48.764;9.172;2023-03-14T20:28:55;8.70;45.80
431;DHT22;202;48.764;9.172;2023-03-14T20:31:22;8.70;47.10
431;DHT22;202;48.764;9.172;2023-03-14T20:33:51;8.80;46.20
431;DHT22;202;48.764;9.172;2023-03-14T20:36:19;8.90;46.00
431;DHT22;202;48.764;9.172;2023-03-14T20:38:46;8.80;45.10
431;DHT22;202;48.764;9.172;2023-03-14T20:41:14;8.90;44.70
431;DHT22;202;48.764;9.172;2023-03-14T20:43:41;8.90;46.00
431;DHT22;202;48.764;9.172;2023-03-14T20:46:10;9.00;45.00